createdAt,value
2023-04-05T00:00:47.752Z,10.23
2023-04-05T00:03:15.245Z,9.91
2023-04-05T00:05:42.693Z,9.88
2023-04-05T00:08:13.304Z,9.75
2023-04-05T00:10:41.060Z,9.82
2023-04-05T00:13:09.264Z,9.85
2023-04-05T00:15:36.648Z,9.84
2023-04-05T00:18:04.139Z,9.83
2023-04-05T00:20:31.502Z,9.91
2023-04-05T00:22:59.151Z,10.06
2023-04-05T00:25:26.710Z,9.95
2023-04-05T00:27:54.078Z,10.00
2023-04-05T00:30:21.477Z,9.86
2023-04-05T00:32:52.542Z,9.75
2023-04-05T00:35:20.860Z,9.75
2023-04-05T00:37:48.244Z,9.70
2023-04-05T00:40:15.779Z,9.67
2023-04-05T00:42:43.181Z,9.75
2023-04-05T00:45:10.903Z,9.70
2023-04-05T00:47:38.288Z,9.65
2023-04-05T00:50:07.293Z,9.69
2023-04-05T00:52:35.287Z,9.52
2023-04-05T00:55:02.931Z,9.56
2023-04-05T00:57:30.364Z,9.55
2023-04-05T01:00:00.088Z,9.68
2023-04-05T01:02:39.261Z,9.91
2023-04-05T01:05:55.337Z,10.22
2023-04-05T01:08:40.782Z,9.89
2023-04-05T01:11:09.350Z,9.74
2023-04-05T01:13:36.547Z,9.52
2023-04-05T01:16:04.605Z,9.77
2023-04-05T01:18:32.990Z,9.55
2023-04-05T01:21:20.832Z,9.75
2023-04-05T01:24:38.637Z,10.04
2023-04-05T01:27:35.612Z,9.85
2023-04-05T01:30:17.892Z,9.72
2023-04-05T01:33:02.911Z,9.98
2023-04-05T01:36:04.168Z,10.05
2023-04-05T01:38:33.624Z,10.07
2023-04-05T01:41:01.171Z,10.26
2023-04-05T01:43:28.882Z,10.15
2023-04-05T01:45:56.266Z,10.03
2023-04-05T01:48:23.602Z,9.83
2023-04-05T01:50:50.974Z,9.84
2023-04-05T01:53:19.209Z,9.58
2023-04-05T01:55:46.711Z,9.58
2023-04-05T01:58:14.102Z,9.57
2023-04-05T02:00:41.657Z,9.53
2023-04-05T02:03:09.303Z,9.60
2023-04-05T02:05:36.751Z,9.55
2023-04-05T02:08:04.084Z,9.54
2023-04-05T02:10:31.406Z,9.48
2023-04-05T02:12:58.782Z,9.50
2023-04-05T02:15:26.199Z,9.48
2023-04-05T02:17:54.145Z,9.54
2023-04-05T02:20:21.936Z,9.52
2023-04-05T02:22:49.350Z,9.54
2023-04-05T02:25:16.678Z,9.39
2023-04-05T02:27:43.696Z,9.41
2023-04-05T02:30:13.632Z,9.57
2023-04-05T02:32:42.741Z,9.51
2023-04-05T02:35:10.683Z,9.48
2023-04-05T02:37:38.753Z,9.43
2023-04-05T02:40:09.068Z,9.42
2023-04-05T02:42:38.780Z,9.34
2023-04-05T02:45:06.696Z,9.36
2023-04-05T02:47:34.379Z,9.34
2023-04-05T02:50:02.470Z,9.45
2023-04-05T02:52:34.290Z,9.39
2023-04-05T02:55:01.657Z,9.35
2023-04-05T02:57:31.819Z,9.26
2023-04-05T03:00:08.636Z,9.25
2023-04-05T03:02:37.681Z,9.28
2023-04-05T03:05:07.714Z,9.34
2023-04-05T03:07:36.513Z,9.34
2023-04-05T03:10:08.125Z,9.39
2023-04-05T03:12:37.871Z,9.26
2023-04-05T03:15:06.794Z,9.26
2023-04-05T03:17:39.275Z,9.18
2023-04-05T03:20:08.941Z,9.34
2023-04-05T03:22:36.805Z,9.24
2023-04-05T03:25:05.086Z,9.24
2023-04-05T03:27:33.877Z,9.20
2023-04-05T03:30:13.359Z,9.17
2023-04-05T03:32:46.902Z,9.12
2023-04-05T03:35:25.018Z,9.17
2023-04-05T03:37:52.460Z,9.25
2023-04-05T03:40:19.560Z,9.10
2023-04-05T03:42:47.896Z,9.14
2023-04-05T03:45:17.128Z,9.11
2023-04-05T03:47:47.353Z,8.99
2023-04-05T03:50:14.918Z,9.01
2023-04-05T03:52:42.418Z,9.03
2023-04-05T03:55:10.142Z,9.04
2023-04-05T03:57:38.941Z,9.07
2023-04-05T04:00:19.914Z,9.08
2023-04-05T04:03:02.643Z,9.02
2023-04-05T04:05:31.249Z,9.01
2023-04-05T04:07:59.525Z,8.99
2023-04-05T04:10:26.911Z,8.91
2023-04-05T04:12:58.023Z,8.91
2023-04-05T04:15:30.155Z,8.94
2023-04-05T04:18:16.036Z,8.87
2023-04-05T04:21:10.732Z,8.91
2023-04-05T04:24:00.895Z,8.91
2023-04-05T04:27:03.580Z,8.88
2023-04-05T04:29:49.716Z,8.88
2023-04-05T04:32:55.896Z,8.76
2023-04-05T04:35:42.478Z,8.79
2023-04-05T04:38:18.731Z,8.89
2023-04-05T04:41:14.349Z,8.97
2023-04-05T04:43:50.649Z,8.78
2023-04-05T04:46:43.474Z,8.67
2023-04-05T04:49:17.195Z,8.70
2023-04-05T04:51:48.937Z,8.71
2023-04-05T04:54:20.952Z,8.70
2023-04-05T04:56:48.535Z,8.70
2023-04-05T04:59:16.195Z,8.65
2023-04-05T05:01:45.809Z,8.68
2023-04-05T05:04:13.252Z,8.61
2023-04-05T05:06:42.065Z,8.62
2023-04-05T05:09:09.420Z,8.65
2023-04-05T05:11:47.607Z,8.59
2023-04-05T05:14:14.994Z,8.57
2023-04-05T05:16:42.434Z,8.61
2023-04-05T05:19:09.801Z,8.57
2023-04-05T05:21:53.837Z,8.59
2023-04-05T05:24:22.005Z,8.54
2023-04-05T05:26:49.349Z,8.62
2023-04-05T05:29:17.987Z,8.54
2023-04-05T05:31:46.590Z,8.61
2023-04-05T05:34:13.907Z,8.61
2023-04-05T05:36:47.871Z,8.63
2023-04-05T05:39:15.971Z,8.69
2023-04-05T05:41:44.049Z,8.59
2023-04-05T05:44:13.019Z,8.73
2023-04-05T05:46:40.437Z,8.60
2023-04-05T05:49:07.761Z,8.62
2023-04-05T05:51:35.974Z,8.62
2023-04-05T05:54:03.139Z,8.83
2023-04-05T05:56:30.517Z,8.35
2023-04-05T05:58:59.366Z,8.63
2023-04-05T06:01:28.009Z,8.67
2023-04-05T06:03:55.655Z,8.68
2023-04-05T06:06:23.532Z,8.83
2023-04-05T06:08:51.936Z,8.68
2023-04-05T06:11:20.058Z,8.69
2023-04-05T06:13:47.526Z,8.71
2023-04-05T06:16:14.809Z,8.72
2023-04-05T06:18:42.454Z,8.93
2023-04-05T06:21:09.785Z,8.78
2023-04-05T06:23:37.281Z,8.82
2023-04-05T06:26:04.591Z,8.72
2023-04-05T06:28:32.074Z,8.70
2023-04-05T06:30:59.778Z,8.73
2023-04-05T06:33:27.511Z,8.77
2023-04-05T06:35:55.308Z,8.87
2023-04-05T06:38:22.645Z,8.86
2023-04-05T06:40:50.101Z,8.68
2023-04-05T06:43:17.421Z,8.75
2023-04-05T06:45:44.726Z,8.73
2023-04-05T06:48:11.969Z,8.68
2023-04-05T06:50:40.936Z,8.89
2023-04-05T06:53:08.499Z,8.90
2023-04-05T06:55:35.810Z,9.04
2023-04-05T06:58:03.096Z,8.83
2023-04-05T07:00:30.770Z,8.86
2023-04-05T07:02:58.177Z,8.97
2023-04-05T07:05:25.675Z,8.78
2023-04-05T07:07:53.154Z,8.96
2023-04-05T07:10:20.859Z,8.71
2023-04-05T07:12:48.238Z,8.51
2023-04-05T07:15:15.661Z,8.61
2023-04-05T07:17:43.017Z,8.72
2023-04-05T07:20:11.043Z,8.69
2023-04-05T07:22:38.344Z,8.73
2023-04-05T07:25:08.390Z,8.50
2023-04-05T07:27:35.936Z,8.67
2023-04-05T07:30:03.387Z,8.66
2023-04-05T07:32:30.815Z,8.71
2023-04-05T07:34:58.235Z,8.58
2023-04-05T07:37:27.296Z,8.83
2023-04-05T07:39:54.686Z,8.79
2023-04-05T07:42:22.136Z,8.52
2023-04-05T07:44:49.617Z,8.79
2023-04-05T07:47:17.090Z,8.45
2023-04-05T07:49:44.480Z,9.39
2023-04-05T07:52:11.829Z,9.02
2023-04-05T07:54:39.934Z,9.07
2023-04-05T07:57:07.442Z,8.75
2023-04-05T07:59:35.327Z,9.13
2023-04-05T08:02:12.381Z,8.91
2023-04-05T08:04:43.165Z,8.80
2023-04-05T08:07:11.340Z,8.93
2023-04-05T08:09:38.649Z,8.91
2023-04-05T08:12:06.586Z,8.52
2023-04-05T08:14:33.934Z,8.84
2023-04-05T08:17:01.317Z,8.79
2023-04-05T08:19:28.814Z,8.86
2023-04-05T08:21:56.519Z,9.18
2023-04-05T08:24:28.994Z,9.28
2023-04-05T08:26:56.398Z,9.27
2023-04-05T08:29:23.794Z,9.37
2023-04-05T08:31:51.172Z,9.36
2023-04-05T08:34:18.488Z,9.52
2023-04-05T08:36:47.125Z,9.42
2023-04-05T08:39:16.033Z,9.41
2023-04-05T08:42:15.845Z,9.37
2023-04-05T08:44:46.438Z,9.82
2023-04-05T08:47:18.245Z,9.51
2023-04-05T08:49:46.127Z,8.96
2023-04-05T08:52:13.585Z,9.70
2023-04-05T08:54:41.022Z,9.67
2023-04-05T08:57:08.978Z,9.92
2023-04-05T08:59:42.503Z,9.89
2023-04-05T09:02:17.691Z,9.25
2023-04-05T09:04:47.005Z,8.87
2023-04-05T09:07:14.721Z,9.10
2023-04-05T09:09:47.548Z,9.66
2023-04-05T09:12:15.921Z,9.25
2023-04-05T09:14:43.877Z,9.29
2023-04-05T09:17:11.567Z,9.42
2023-04-05T09:19:39.273Z,9.60
2023-04-05T09:22:08.111Z,10.81
2023-04-05T09:24:44.560Z,11.19
2023-04-05T09:27:18.275Z,11.14
2023-04-05T09:29:50.366Z,11.10
2023-04-05T09:32:19.362Z,10.15
2023-04-05T09:34:47.470Z,10.77
2023-04-05T09:37:27.235Z,10.35
2023-04-05T09:40:04.526Z,10.39
2023-04-05T09:42:44.806Z,10.58
2023-04-05T09:45:12.722Z,9.77
2023-04-05T09:47:58.821Z,10.00
2023-04-05T09:50:26.210Z,10.36
2023-04-05T09:53:08.105Z,10.48
2023-04-05T09:55:35.729Z,10.25
2023-04-05T09:58:04.034Z,9.98
2023-04-05T10:00:32.456Z,10.34
2023-04-05T10:03:00.104Z,9.82
2023-04-05T10:05:28.717Z,9.72
2023-04-05T10:07:56.610Z,10.65
2023-04-05T10:10:24.615Z,10.08
2023-04-05T10:12:52.190Z,10.57
2023-04-05T10:15:19.591Z,10.36
2023-04-05T10:17:55.445Z,11.20
2023-04-05T10:20:24.663Z,11.46
2023-04-05T10:23:22.296Z,11.10
2023-04-05T10:25:53.351Z,10.80
2023-04-05T10:28:37.487Z,11.06
2023-04-05T10:31:36.237Z,11.45
2023-04-05T10:34:08.087Z,11.42
2023-04-05T10:36:58.950Z,11.97
2023-04-05T10:39:39.751Z,11.89
2023-04-05T10:42:07.612Z,10.82
2023-04-05T10:44:37.470Z,11.34
2023-04-05T10:47:06.990Z,11.27
2023-04-05T10:49:37.689Z,11.38
2023-04-05T10:52:05.462Z,11.69
2023-04-05T10:54:37.440Z,10.44
2023-04-05T10:57:09.347Z,10.89
2023-04-05T10:59:43.229Z,11.19
2023-04-05T11:02:10.968Z,11.53
2023-04-05T11:04:41.411Z,11.74
2023-04-05T11:07:17.717Z,11.56
2023-04-05T11:10:02.624Z,11.07
2023-04-05T11:12:49.973Z,10.52
2023-04-05T11:15:30.672Z,11.76
2023-04-05T11:18:12.507Z,10.98
2023-04-05T11:20:57.798Z,11.08
2023-04-05T11:23:25.690Z,10.22
2023-04-05T11:26:04.988Z,14.44
2023-04-05T11:28:39.347Z,16.01
2023-04-05T11:31:26.916Z,17.91
2023-04-05T11:34:10.537Z,18.25
2023-04-05T11:36:45.726Z,17.25
2023-04-05T11:39:19.143Z,18.09
2023-04-05T11:42:12.209Z,20.24
2023-04-05T11:44:48.859Z,17.05
2023-04-05T11:47:21.745Z,15.36
2023-04-05T11:49:52.521Z,15.76
2023-04-05T11:52:21.773Z,17.09
2023-04-05T11:54:49.972Z,20.12
2023-04-05T11:57:22.995Z,16.34
2023-04-05T11:59:52.188Z,13.83
2023-04-05T12:02:19.698Z,13.08
2023-04-05T12:04:56.018Z,14.53
2023-04-05T12:07:28.902Z,19.56
2023-04-05T12:10:15.929Z,19.01
2023-04-05T12:12:45.022Z,17.98
2023-04-05T12:15:20.373Z,20.06
2023-04-05T12:17:50.261Z,22.31
2023-04-05T12:20:26.076Z,22.70
2023-04-05T12:22:56.527Z,21.95
2023-04-05T12:25:25.020Z,21.61
2023-04-05T12:27:53.184Z,22.10
2023-04-05T12:30:22.682Z,19.13
2023-04-05T12:32:57.431Z,21.18
2023-04-05T12:35:33.056Z,22.75
2023-04-05T12:38:05.854Z,22.70
2023-04-05T12:40:35.577Z,22.00
2023-04-05T12:43:07.740Z,24.04
2023-04-05T12:45:42.008Z,22.51
2023-04-05T12:48:13.112Z,22.12
2023-04-05T12:50:45.827Z,22.15
2023-04-05T12:53:20.592Z,21.14
2023-04-05T12:55:54.835Z,23.34
2023-04-05T12:58:32.059Z,25.76
2023-04-05T13:00:59.521Z,23.23
2023-04-05T13:03:27.711Z,23.47
2023-04-05T13:05:55.530Z,18.07
2023-04-05T13:08:22.968Z,15.43
2023-04-05T13:10:50.645Z,18.29
2023-04-05T13:13:21.102Z,22.74
2023-04-05T13:15:50.681Z,23.09
2023-04-05T13:18:19.500Z,24.03
2023-04-05T13:20:47.285Z,24.70
2023-04-05T13:23:14.839Z,24.38
2023-04-05T13:25:45.271Z,24.39
2023-04-05T13:28:12.827Z,23.80
2023-04-05T13:30:40.223Z,25.79
2023-04-05T13:33:07.229Z,25.97
2023-04-05T13:35:34.665Z,25.94
2023-04-05T13:38:04.301Z,22.40
2023-04-05T13:40:32.538Z,18.69
2023-04-05T13:43:03.480Z,22.84
2023-04-05T13:45:31.943Z,24.69
2023-04-05T13:47:59.358Z,22.66
2023-04-05T13:50:27.178Z,23.80
2023-04-05T13:52:54.501Z,23.81
2023-04-05T13:55:21.904Z,23.46
2023-04-05T13:57:51.106Z,25.35
2023-04-05T14:00:18.947Z,22.71
2023-04-05T14:02:47.045Z,21.71
2023-04-05T14:05:15.546Z,21.49
2023-04-05T14:07:42.966Z,22.03
2023-04-05T14:10:11.608Z,19.35
2023-04-05T14:12:42.600Z,19.34
2023-04-05T14:15:13.696Z,18.32
2023-04-05T14:17:41.460Z,17.05
2023-04-05T14:20:09.141Z,16.82
2023-04-05T14:22:36.542Z,15.81
2023-04-05T14:25:04.468Z,17.64
2023-04-05T14:27:31.824Z,15.68
2023-04-05T14:29:59.255Z,17.00
2023-04-05T14:32:26.724Z,18.41
2023-04-05T14:34:54.327Z,18.24
2023-04-05T14:37:21.711Z,17.64
2023-04-05T14:39:49.058Z,17.31
2023-04-05T14:42:16.406Z,17.54
2023-04-05T14:44:43.792Z,15.60
2023-04-05T14:47:10.815Z,15.88
2023-04-05T14:49:38.164Z,17.00
2023-04-05T14:52:05.679Z,16.16
2023-04-05T14:54:33.101Z,16.49
2023-04-05T14:57:00.575Z,17.27
2023-04-05T14:59:28.160Z,17.95
2023-04-05T15:01:55.522Z,18.29
2023-04-05T15:04:22.676Z,17.46
2023-04-05T15:06:50.352Z,17.41
2023-04-05T15:09:17.871Z,17.63
2023-04-05T15:11:48.132Z,17.31
2023-04-05T15:14:28.941Z,16.53
2023-04-05T15:17:00.386Z,15.55
2023-04-05T15:19:30.809Z,16.17
2023-04-05T15:22:00.634Z,15.54
2023-04-05T15:24:29.508Z,15.54
2023-04-05T15:27:02.620Z,16.40
2023-04-05T15:29:33.947Z,15.84
2023-04-05T15:32:08.873Z,15.64
2023-04-05T15:34:39.041Z,15.56
2023-04-05T15:37:07.453Z,14.73
2023-04-05T15:39:36.709Z,14.54
2023-04-05T15:42:05.828Z,15.52
2023-04-05T15:44:37.958Z,15.41
2023-04-05T15:47:07.810Z,15.64
2023-04-05T15:49:36.309Z,15.12
2023-04-05T15:52:06.974Z,15.52
2023-04-05T15:54:35.740Z,15.20
2023-04-05T15:57:12.370Z,14.86
2023-04-05T15:59:42.915Z,15.33
2023-04-05T16:02:12.837Z,15.51
2023-04-05T16:04:41.305Z,14.93
2023-04-05T16:07:10.126Z,14.75
2023-04-05T16:09:38.852Z,15.70
2023-04-05T16:12:09.025Z,15.55
2023-04-05T16:14:37.494Z,15.37
2023-04-05T16:17:05.994Z,15.92
2023-04-05T16:19:35.080Z,16.08
2023-04-05T16:22:06.983Z,15.74
2023-04-05T16:24:40.038Z,15.70
2023-04-05T16:27:14.989Z,15.53
2023-04-05T16:29:55.132Z,15.79
2023-04-05T16:32:26.399Z,14.80
2023-04-05T16:35:11.504Z,15.00
2023-04-05T16:37:40.985Z,14.92
2023-04-05T16:40:10.802Z,15.14
2023-04-05T16:42:39.424Z,14.89
2023-04-05T16:45:11.664Z,14.73
2023-04-05T16:47:40.402Z,14.62
2023-04-05T16:50:09.710Z,14.43
2023-04-05T16:52:37.679Z,14.58
2023-04-05T16:55:05.725Z,15.09
2023-04-05T16:57:33.829Z,15.42
2023-04-05T17:00:04.111Z,14.77
2023-04-05T17:02:32.481Z,14.96
2023-04-05T17:05:00.479Z,14.74
2023-04-05T17:07:34.484Z,14.70
2023-04-05T17:10:07.376Z,14.83
2023-04-05T17:12:42.157Z,15.06
2023-04-05T17:15:16.517Z,15.32
2023-04-05T17:17:44.915Z,15.10
2023-04-05T17:20:13.114Z,15.07
2023-04-05T17:22:41.745Z,14.98
2023-04-05T17:25:10.475Z,15.16
2023-04-05T17:27:38.682Z,14.82
2023-04-05T17:30:07.611Z,15.07
2023-04-05T17:32:35.952Z,15.21
2023-04-05T17:35:04.319Z,15.15
2023-04-05T17:37:32.290Z,15.24
2023-04-05T17:40:00.647Z,15.22
2023-04-05T17:42:28.761Z,15.03
2023-04-05T17:44:57.086Z,15.24
2023-04-05T17:47:26.309Z,15.31
2023-04-05T17:49:54.372Z,15.22
2023-04-05T17:52:22.916Z,15.20
2023-04-05T17:54:53.024Z,15.48
2023-04-05T17:57:21.268Z,15.30
2023-04-05T17:59:49.644Z,15.09
2023-04-05T18:02:18.212Z,15.25
2023-04-05T18:04:47.879Z,15.21
2023-04-05T18:07:16.485Z,15.13
2023-04-05T18:09:45.078Z,15.13
2023-04-05T18:12:15.047Z,14.92
2023-04-05T18:14:43.746Z,14.66
2023-04-05T18:17:18.542Z,14.77
2023-04-05T18:19:49.437Z,14.42
2023-04-05T18:22:18.270Z,14.38
2023-04-05T18:24:46.862Z,14.33
2023-04-05T18:27:15.680Z,14.37
2023-04-05T18:29:46.466Z,14.30
2023-04-05T18:32:15.093Z,14.25
2023-04-05T18:34:43.684Z,14.11
2023-04-05T18:37:14.086Z,14.10
2023-04-05T18:39:43.553Z,13.89
2023-04-05T18:42:12.206Z,13.88
2023-04-05T18:44:41.490Z,13.90
2023-04-05T18:47:10.085Z,13.88
2023-04-05T18:49:38.474Z,13.75
2023-04-05T18:52:06.984Z,13.82
2023-04-05T18:54:35.372Z,13.62
2023-04-05T18:57:04.581Z,13.56
2023-04-05T18:59:32.949Z,13.48
2023-04-05T19:02:04.052Z,13.53
2023-04-05T19:04:32.611Z,13.55
2023-04-05T19:07:01.782Z,13.43
2023-04-05T19:09:30.361Z,13.50
2023-04-05T19:12:01.861Z,13.44
2023-04-05T19:14:31.309Z,13.43
2023-04-05T19:17:00.024Z,13.32
2023-04-05T19:19:28.885Z,13.42
2023-04-05T19:22:00.087Z,13.27
2023-04-05T19:24:29.101Z,13.12
2023-04-05T19:26:57.818Z,13.22
2023-04-05T19:29:26.560Z,13.06
2023-04-05T19:31:58.634Z,13.15
2023-04-05T19:34:33.235Z,13.20
2023-04-05T19:37:01.302Z,13.03
2023-04-05T19:39:30.205Z,13.04
2023-04-05T19:41:58.694Z,13.12
2023-04-05T19:44:57.782Z,13.25
2023-04-05T19:47:26.645Z,12.94
2023-04-05T19:50:01.091Z,12.94
2023-04-05T19:52:48.765Z,13.35
2023-04-05T19:55:32.898Z,13.39
2023-04-05T19:58:07.228Z,13.14
2023-04-05T20:00:48.665Z,13.38
2023-04-05T20:03:35.235Z,13.23
2023-04-05T20:06:14.823Z,13.11
2023-04-05T20:08:45.588Z,13.00
2023-04-05T20:11:19.156Z,12.99
2023-04-05T20:13:58.676Z,12.96
2023-04-05T20:16:35.985Z,12.88
2023-04-05T20:19:11.217Z,12.85
2023-04-05T20:21:39.696Z,12.69
2023-04-05T20:24:10.160Z,12.64
2023-04-05T20:26:41.461Z,12.56
2023-04-05T20:29:10.327Z,12.57
2023-04-05T20:31:40.086Z,12.52
2023-04-05T20:34:15.861Z,12.65
2023-04-05T20:36:55.274Z,12.60
2023-04-05T20:39:26.231Z,12.51
2023-04-05T20:41:56.029Z,12.46
2023-04-05T20:44:25.638Z,12.37
2023-04-05T20:47:03.967Z,12.40
2023-04-05T20:49:36.344Z,12.31
2023-04-05T20:52:12.573Z,12.38
2023-04-05T20:54:40.854Z,12.28
2023-04-05T20:57:11.988Z,12.37
2023-04-05T20:59:42.466Z,12.24
2023-04-05T21:02:10.659Z,12.17
2023-04-05T21:04:38.894Z,12.25
2023-04-05T21:07:09.145Z,12.23
2023-04-05T21:09:37.187Z,12.14
2023-04-05T21:12:06.120Z,12.15
2023-04-05T21:14:34.154Z,12.07
2023-04-05T21:17:04.366Z,12.03
2023-04-05T21:19:34.806Z,12.22
2023-04-05T21:22:03.052Z,12.11
2023-04-05T21:24:31.477Z,11.96
2023-04-05T21:26:59.755Z,12.01
2023-04-05T21:29:27.992Z,11.89
2023-04-05T21:31:56.261Z,11.97
2023-04-05T21:34:24.754Z,11.98
2023-04-05T21:36:53.067Z,11.93
2023-04-05T21:39:23.255Z,11.92
2023-04-05T21:41:51.468Z,11.85
2023-04-05T21:44:21.952Z,11.92
2023-04-05T21:46:50.187Z,11.92
2023-04-05T21:49:18.720Z,11.82
2023-04-05T21:51:46.602Z,11.77
2023-04-05T21:54:14.788Z,11.77
2023-04-05T21:56:51.965Z,11.83
2023-04-05T21:59:20.344Z,11.71
2023-04-05T22:01:48.959Z,11.70
2023-04-05T22:04:16.782Z,11.68
2023-04-05T22:06:44.518Z,11.63
2023-04-05T22:09:12.284Z,11.62
2023-04-05T22:11:40.063Z,11.60
2023-04-05T22:14:08.519Z,11.56
2023-04-05T22:16:36.716Z,11.44
2023-04-05T22:19:04.943Z,11.39
2023-04-05T22:21:33.887Z,11.47
2023-04-05T22:24:04.324Z,11.52
2023-04-05T22:26:32.644Z,11.40
2023-04-05T22:29:01.318Z,11.48
2023-04-05T22:31:29.470Z,11.34
2023-04-05T22:33:57.710Z,11.32
2023-04-05T22:36:26.194Z,11.30
2023-04-05T22:38:54.788Z,11.39
2023-04-05T22:41:25.112Z,11.35
2023-04-05T22:43:52.963Z,11.36
2023-04-05T22:46:20.729Z,11.27
2023-04-05T22:48:50.055Z,11.39
2023-04-05T22:51:17.658Z,11.28
2023-04-05T22:53:46.221Z,11.23
2023-04-05T22:56:14.709Z,11.21
2023-04-05T22:58:42.681Z,11.10
2023-04-05T23:01:10.776Z,11.18
2023-04-05T23:03:38.418Z,11.18
2023-04-05T23:06:06.522Z,11.17
2023-04-05T23:08:37.289Z,11.10
2023-04-05T23:11:05.306Z,11.09
2023-04-05T23:13:32.908Z,11.06
2023-04-05T23:16:00.659Z,10.98
2023-04-05T23:18:28.309Z,11.01
2023-04-05T23:20:56.192Z,11.06
2023-04-05T23:23:24.018Z,11.09
2023-04-05T23:25:51.771Z,11.02
2023-04-05T23:28:19.447Z,11.01
2023-04-05T23:30:49.656Z,11.00
2023-04-05T23:33:17.155Z,10.79
2023-04-05T23:35:44.686Z,10.85
2023-04-05T23:38:12.212Z,10.91
2023-04-05T23:40:39.676Z,10.89
2023-04-05T23:43:07.263Z,10.84
2023-04-05T23:45:34.930Z,10.83
2023-04-05T23:48:02.556Z,10.87
2023-04-05T23:50:30.139Z,10.84
2023-04-05T23:52:58.353Z,10.79
2023-04-05T23:55:26.442Z,10.77
2023-04-05T23:57:56.532Z,10.76
